createdAt,value
2023-03-04T00:00:30.583Z,10.32
2023-03-04T00:03:34.485Z,10.57
2023-03-04T00:06:38.667Z,9.80
2023-03-04T00:09:46.471Z,10.75
2023-03-04T00:12:50.449Z,11.00
2023-03-04T00:15:54.631Z,11.25
2023-03-04T00:18:59.278Z,11.23
2023-03-04T00:22:04.520Z,12.45
2023-03-04T00:25:09.280Z,12.98
2023-03-04T00:28:13.037Z,12.40
2023-03-04T00:31:17.011Z,13.15
2023-03-04T00:34:21.793Z,13.05
2023-03-04T00:37:26.048Z,12.77
2023-03-04T00:40:29.916Z,13.85
2023-03-04T00:43:34.357Z,14.15
2023-03-04T00:46:38.588Z,15.32
2023-03-04T00:49:42.513Z,15.10
2023-03-04T00:52:46.371Z,16.15
2023-03-04T00:55:50.615Z,15.63
2023-03-04T00:58:54.872Z,16.60
2023-03-04T01:01:59.165Z,18.42
2023-03-04T01:05:03.820Z,17.45
2023-03-04T01:08:07.958Z,16.17
2023-03-04T01:11:12.097Z,16.52
2023-03-04T01:14:16.470Z,15.43
2023-03-04T01:17:20.251Z,16.73
2023-03-04T01:20:24.956Z,14.85
2023-03-04T01:23:28.771Z,14.85
2023-03-04T01:26:32.917Z,14.13
2023-03-04T01:29:37.033Z,13.80
2023-03-04T01:32:41.414Z,13.70
2023-03-04T01:35:45.553Z,14.13
2023-03-04T01:38:49.310Z,12.63
2023-03-04T01:41:53.518Z,13.20
2023-03-04T01:44:57.954Z,13.32
2023-03-04T01:48:02.066Z,13.05
2023-03-04T01:51:11.057Z,13.05
2023-03-04T01:54:16.596Z,13.32
2023-03-04T01:57:22.791Z,12.13
2023-03-04T02:00:32.561Z,14.20
2023-03-04T02:03:37.379Z,12.40
2023-03-04T02:06:42.287Z,13.30
2023-03-04T02:09:46.158Z,13.45
2023-03-04T02:12:51.283Z,13.85
2023-03-04T02:15:55.172Z,12.40
2023-03-04T02:18:59.913Z,12.98
2023-03-04T02:22:04.390Z,13.07
2023-03-04T02:25:13.237Z,12.95
2023-03-04T02:28:17.570Z,12.98
2023-03-04T02:31:39.923Z,13.27
2023-03-04T02:34:49.753Z,13.27
2023-03-04T02:37:55.875Z,13.95
2023-03-04T02:40:59.959Z,13.05
2023-03-04T02:44:09.493Z,14.80
2023-03-04T02:47:17.704Z,12.95
2023-03-04T02:50:22.415Z,13.60
2023-03-04T02:53:26.621Z,13.80
2023-03-04T02:56:31.166Z,13.60
2023-03-04T02:59:36.059Z,13.77
2023-03-04T03:02:40.159Z,12.57
2023-03-04T03:05:44.564Z,14.23
2023-03-04T03:08:48.387Z,12.23
2023-03-04T03:11:52.795Z,12.93
2023-03-04T03:14:57.044Z,11.85
2023-03-04T03:18:01.333Z,13.13
2023-03-04T03:21:06.086Z,13.77
2023-03-04T03:24:09.987Z,13.15
2023-03-04T03:27:13.924Z,12.68
2023-03-04T03:30:17.822Z,13.80
2023-03-04T03:33:22.157Z,13.07
2023-03-04T03:36:26.374Z,13.88
2023-03-04T03:39:30.547Z,12.80
2023-03-04T03:42:34.822Z,13.82
2023-03-04T03:45:38.906Z,13.30
2023-03-04T03:48:42.961Z,13.75
2023-03-04T03:51:47.130Z,13.00
2023-03-04T03:54:51.475Z,12.65
2023-03-04T03:57:55.362Z,12.98
2023-03-04T04:00:59.435Z,12.38
2023-03-04T04:04:04.311Z,12.60
2023-03-04T04:07:08.639Z,11.43
2023-03-04T04:10:13.085Z,12.40
2023-03-04T04:13:17.403Z,12.82
2023-03-04T04:16:21.330Z,12.45
2023-03-04T04:19:25.532Z,13.35
2023-03-04T04:22:29.705Z,14.32
2023-03-04T04:25:34.178Z,13.07
2023-03-04T04:28:38.160Z,12.32
2023-03-04T04:31:42.427Z,12.60
2023-03-04T04:34:46.515Z,11.55
2023-03-04T04:37:50.936Z,11.95
2023-03-04T04:40:58.470Z,12.60
2023-03-04T04:44:02.921Z,12.10
2023-03-04T04:47:07.353Z,11.88
2023-03-04T04:50:11.750Z,12.40
2023-03-04T04:53:15.914Z,11.38
2023-03-04T04:56:25.052Z,11.38
2023-03-04T04:59:29.086Z,11.50
2023-03-04T05:02:36.388Z,11.00
2023-03-04T05:05:40.347Z,10.23
2023-03-04T05:08:44.250Z,10.43
2023-03-04T05:11:48.025Z,10.65
2023-03-04T05:14:51.768Z,10.75
2023-03-04T05:17:55.778Z,10.57
2023-03-04T05:21:02.254Z,11.30
2023-03-04T05:24:06.797Z,11.82
2023-03-04T05:27:10.717Z,12.55
2023-03-04T05:30:15.032Z,12.27
2023-03-04T05:33:20.193Z,12.93
2023-03-04T05:36:24.669Z,12.13
2023-03-04T05:39:28.902Z,11.25
2023-03-04T05:42:32.778Z,10.60
2023-03-04T05:45:37.036Z,10.63
2023-03-04T05:48:41.050Z,10.85
2023-03-04T05:51:45.262Z,12.02
2023-03-04T05:54:49.132Z,11.52
2023-03-04T05:57:53.723Z,10.38
2023-03-04T06:01:00.380Z,11.18
2023-03-04T06:04:04.679Z,10.57
2023-03-04T06:07:08.661Z,10.77
2023-03-04T06:10:16.510Z,11.20
2023-03-04T06:13:21.291Z,11.25
2023-03-04T06:16:25.008Z,10.52
2023-03-04T06:19:28.690Z,11.18
2023-03-04T06:22:34.496Z,9.90
2023-03-04T06:25:38.417Z,11.00
2023-03-04T06:28:43.498Z,9.88
2023-03-04T06:31:47.844Z,9.90
2023-03-04T06:34:51.923Z,9.85
2023-03-04T06:37:56.053Z,10.35
2023-03-04T06:41:08.027Z,9.88
2023-03-04T06:44:12.538Z,9.93
2023-03-04T06:47:16.682Z,9.60
2023-03-04T06:50:21.314Z,9.45
2023-03-04T06:53:25.712Z,10.07
2023-03-04T06:56:29.963Z,9.57
2023-03-04T06:59:34.413Z,9.20
2023-03-04T07:02:38.400Z,9.20
2023-03-04T07:05:43.504Z,9.30
2023-03-04T07:08:47.835Z,9.18
2023-03-04T07:11:51.669Z,8.40
2023-03-04T07:14:55.813Z,8.13
2023-03-04T07:17:59.883Z,9.02
2023-03-04T07:21:05.505Z,9.40
2023-03-04T07:24:09.726Z,8.40
2023-03-04T07:27:13.902Z,8.73
2023-03-04T07:30:18.008Z,8.98
2023-03-04T07:33:22.485Z,8.82
2023-03-04T07:36:27.311Z,8.38
2023-03-04T07:39:31.187Z,9.05
2023-03-04T07:42:35.058Z,9.32
2023-03-04T07:45:39.262Z,9.80
2023-03-04T07:48:43.543Z,8.25
2023-03-04T07:51:47.617Z,8.57
2023-03-04T07:54:51.763Z,7.30
2023-03-04T07:57:55.857Z,8.38
2023-03-04T08:00:59.959Z,8.38
2023-03-04T08:04:05.560Z,7.70
2023-03-04T08:07:09.545Z,7.55
2023-03-04T08:10:13.340Z,7.30
2023-03-04T08:13:17.144Z,6.55
2023-03-04T08:16:23.248Z,7.00
2023-03-04T08:19:27.511Z,6.78
2023-03-04T08:22:31.782Z,6.63
2023-03-04T08:25:39.622Z,6.22
2023-03-04T08:28:45.781Z,6.47
2023-03-04T08:31:51.652Z,6.40
2023-03-04T08:34:56.906Z,6.47
2023-03-04T08:38:02.535Z,6.63
2023-03-04T08:41:07.197Z,6.00
2023-03-04T08:44:11.568Z,5.78
2023-03-04T08:47:16.589Z,5.88
2023-03-04T08:50:22.557Z,5.80
2023-03-04T08:53:27.557Z,5.95
2023-03-04T08:56:31.716Z,4.70
2023-03-04T08:59:38.164Z,4.75
2023-03-04T09:02:42.802Z,3.58
2023-03-04T09:05:48.101Z,3.45
2023-03-04T09:08:52.012Z,3.80
2023-03-04T09:11:56.189Z,2.90
2023-03-04T09:15:10.567Z,3.72
2023-03-04T09:18:16.530Z,3.00
2023-03-04T09:21:20.637Z,3.55
2023-03-04T09:24:25.728Z,3.13
2023-03-04T09:27:29.776Z,2.72
2023-03-04T09:30:34.977Z,3.08
2023-03-04T09:33:42.988Z,2.70
2023-03-04T09:36:47.341Z,2.70
2023-03-04T09:39:51.584Z,2.75
2023-03-04T09:43:11.414Z,3.25
2023-03-04T09:46:20.191Z,3.50
2023-03-04T09:49:24.667Z,3.88
2023-03-04T09:53:06.337Z,3.47
2023-03-04T09:56:11.537Z,2.83
2023-03-04T09:59:25.790Z,3.55
2023-03-04T10:02:40.017Z,2.85
2023-03-04T10:05:49.867Z,2.60
2023-03-04T10:09:01.498Z,2.55
2023-03-04T10:12:14.926Z,2.55
2023-03-04T10:15:31.048Z,3.10
2023-03-04T10:18:43.926Z,2.80
2023-03-04T10:21:52.003Z,2.35
2023-03-04T10:24:58.683Z,2.40
2023-03-04T10:28:11.383Z,2.03
2023-03-04T10:31:37.009Z,2.33
2023-03-04T10:34:41.406Z,2.63
2023-03-04T10:37:50.060Z,2.50
2023-03-04T10:40:54.280Z,2.30
2023-03-04T10:44:16.399Z,2.10
2023-03-04T10:47:24.210Z,2.13
2023-03-04T10:50:28.896Z,1.90
2023-03-04T10:53:43.478Z,2.00
2023-03-04T10:57:03.554Z,2.00
2023-03-04T11:00:26.999Z,1.95
2023-03-04T11:03:34.567Z,1.95
2023-03-04T11:06:41.088Z,2.17
2023-03-04T11:09:45.667Z,2.03
2023-03-04T11:13:00.947Z,2.25
2023-03-04T11:16:22.385Z,2.55
2023-03-04T11:19:58.032Z,2.10
2023-03-04T11:23:12.298Z,2.13
2023-03-04T11:26:23.328Z,2.08
2023-03-04T11:29:44.018Z,1.92
2023-03-04T11:32:51.574Z,1.90
2023-03-04T11:36:23.670Z,1.80
2023-03-04T11:39:37.858Z,1.98
2023-03-04T11:42:57.535Z,1.90
2023-03-04T11:46:20.383Z,1.80
2023-03-04T11:50:05.429Z,1.90
2023-03-04T11:53:24.761Z,2.22
2023-03-04T11:56:36.901Z,2.00
2023-03-04T12:00:02.856Z,2.00
2023-03-04T12:03:44.776Z,1.70
2023-03-04T12:07:26.914Z,1.92
2023-03-04T12:10:48.599Z,2.40
2023-03-04T12:13:58.952Z,2.50
2023-03-04T12:17:03.030Z,2.63
2023-03-04T12:20:10.596Z,2.80
2023-03-04T12:23:31.671Z,2.58
2023-03-04T12:26:52.777Z,2.60
2023-03-04T12:30:05.630Z,2.33
2023-03-04T12:33:41.896Z,2.17
2023-03-04T12:37:05.184Z,1.90
2023-03-04T12:40:26.231Z,1.83
2023-03-04T12:43:57.558Z,2.20
2023-03-04T12:47:49.700Z,2.30
2023-03-04T12:51:17.524Z,2.15
2023-03-04T12:54:32.046Z,2.40
2023-03-04T12:57:36.794Z,2.72
2023-03-04T13:01:15.878Z,3.13
2023-03-04T13:04:29.247Z,2.70
2023-03-04T13:07:48.658Z,3.45
2023-03-04T13:10:52.901Z,3.60
2023-03-04T13:14:17.144Z,3.10
2023-03-04T13:17:42.121Z,2.75
2023-03-04T13:21:25.178Z,2.63
2023-03-04T13:24:46.732Z,2.60
2023-03-04T13:28:02.859Z,2.40
2023-03-04T13:31:10.225Z,2.90
2023-03-04T13:34:57.866Z,2.00
2023-03-04T13:38:23.607Z,2.10
2023-03-04T13:41:33.869Z,1.98
2023-03-04T13:44:43.974Z,2.60
2023-03-04T13:47:48.787Z,2.10
2023-03-04T13:50:53.283Z,2.10
2023-03-04T13:54:00.884Z,2.42
2023-03-04T13:57:25.172Z,2.72
2023-03-04T14:00:29.772Z,3.50
2023-03-04T14:03:35.476Z,3.22
2023-03-04T14:06:45.097Z,4.10
2023-03-04T14:10:11.853Z,3.78
2023-03-04T14:13:16.155Z,4.28
2023-03-04T14:16:28.026Z,4.32
2023-03-04T14:19:46.627Z,4.03
2023-03-04T14:22:50.759Z,3.40
2023-03-04T14:26:17.451Z,3.40
2023-03-04T14:29:29.420Z,3.38
2023-03-04T14:32:33.790Z,2.42
2023-03-04T14:35:37.936Z,2.90
2023-03-04T14:38:43.750Z,2.72
2023-03-04T14:41:49.754Z,2.30
2023-03-04T14:44:56.420Z,2.40
2023-03-04T14:48:06.262Z,2.60
2023-03-04T14:51:38.717Z,2.83
2023-03-04T14:54:43.023Z,3.00
2023-03-04T14:57:51.297Z,3.30
2023-03-04T15:01:17.478Z,3.25
2023-03-04T15:04:21.907Z,2.72
2023-03-04T15:07:32.088Z,2.80
2023-03-04T15:10:38.126Z,2.80
2023-03-04T15:13:51.189Z,2.80
2023-03-04T15:16:57.065Z,3.47
2023-03-04T15:20:13.297Z,3.10
2023-03-04T15:23:17.441Z,3.22
2023-03-04T15:26:21.579Z,3.17
2023-03-04T15:29:25.764Z,2.97
2023-03-04T15:32:30.301Z,2.60
2023-03-04T15:35:34.464Z,2.28
2023-03-04T15:38:38.302Z,2.10
2023-03-04T15:41:42.538Z,2.58
2023-03-04T15:44:46.652Z,2.33
2023-03-04T15:47:51.660Z,2.40
2023-03-04T15:51:01.258Z,2.30
2023-03-04T15:54:10.430Z,2.40
2023-03-04T15:57:24.576Z,2.05
2023-03-04T16:00:28.684Z,2.00
2023-03-04T16:03:32.866Z,2.75
2023-03-04T16:06:37.076Z,2.30
2023-03-04T16:09:41.313Z,1.60
2023-03-04T16:12:45.250Z,1.80
2023-03-04T16:15:50.225Z,1.80
2023-03-04T16:18:54.078Z,1.88
2023-03-04T16:21:58.288Z,1.50
2023-03-04T16:25:02.384Z,1.40
2023-03-04T16:28:07.176Z,1.55
2023-03-04T16:31:13.428Z,2.03
2023-03-04T16:34:17.375Z,1.98
2023-03-04T16:37:21.774Z,1.42
2023-03-04T16:40:29.169Z,1.50
2023-03-04T16:43:33.624Z,1.80
2023-03-04T16:46:37.854Z,1.67
2023-03-04T16:49:41.818Z,1.58
2023-03-04T16:52:48.255Z,1.85
2023-03-04T16:55:52.431Z,1.80
2023-03-04T16:58:56.844Z,1.50
2023-03-04T17:02:01.073Z,1.40
2023-03-04T17:05:05.605Z,1.33
2023-03-04T17:08:09.717Z,1.40
2023-03-04T17:11:18.054Z,1.40
2023-03-04T17:14:22.872Z,1.50
2023-03-04T17:17:26.938Z,1.60
2023-03-04T17:20:31.092Z,1.52
2023-03-04T17:23:35.209Z,1.73
2023-03-04T17:26:39.807Z,1.80
2023-03-04T17:29:43.911Z,1.40
2023-03-04T17:32:48.165Z,1.33
2023-03-04T17:35:52.243Z,2.03
2023-03-04T17:38:56.307Z,1.70
2023-03-04T17:42:00.397Z,2.05
2023-03-04T17:45:05.005Z,1.70
2023-03-04T17:48:15.248Z,2.00
2023-03-04T17:51:19.640Z,2.00
2023-03-04T17:54:23.725Z,1.92
2023-03-04T17:57:27.578Z,1.83
2023-03-04T18:00:34.692Z,1.70
2023-03-04T18:03:38.658Z,2.20
2023-03-04T18:06:42.904Z,2.17
2023-03-04T18:09:47.282Z,2.00
2023-03-04T18:12:51.161Z,2.25
2023-03-04T18:15:55.466Z,2.10
2023-03-04T18:19:01.271Z,2.45
2023-03-04T18:22:05.195Z,2.03
2023-03-04T18:25:12.440Z,2.22
2023-03-04T18:28:16.414Z,2.00
2023-03-04T18:31:29.462Z,2.38
2023-03-04T18:34:35.300Z,2.53
2023-03-04T18:37:40.113Z,2.42
2023-03-04T18:40:44.469Z,3.20
2023-03-04T18:43:48.578Z,2.08
2023-03-04T18:46:55.694Z,2.40
2023-03-04T18:49:59.832Z,2.50
2023-03-04T18:53:04.282Z,2.30
2023-03-04T18:56:37.664Z,2.58
2023-03-04T18:59:52.360Z,2.20
2023-03-04T19:03:04.234Z,2.22
2023-03-04T19:06:08.241Z,2.55
2023-03-04T19:09:12.552Z,2.90
2023-03-04T19:12:16.778Z,3.33
2023-03-04T19:15:21.099Z,2.28
2023-03-04T19:18:25.709Z,2.40
2023-03-04T19:21:29.854Z,2.53
2023-03-04T19:24:35.057Z,2.70
2023-03-04T19:27:39.482Z,2.20
2023-03-04T19:30:43.891Z,2.40
2023-03-04T19:33:47.945Z,3.08
2023-03-04T19:36:52.043Z,2.20
2023-03-04T19:39:56.021Z,2.53
2023-03-04T19:43:00.152Z,3.30
2023-03-04T19:46:05.030Z,2.60
2023-03-04T19:49:10.071Z,2.97
2023-03-04T19:52:14.190Z,3.30
2023-03-04T19:55:18.427Z,2.92
2023-03-04T19:58:22.940Z,3.42
2023-03-04T20:01:29.514Z,3.40
2023-03-04T20:04:34.026Z,2.60
2023-03-04T20:07:38.049Z,2.65
2023-03-04T20:10:42.229Z,2.75
2023-03-04T20:13:46.525Z,2.80
2023-03-04T20:16:50.728Z,2.50
2023-03-04T20:19:54.666Z,2.72
2023-03-04T20:22:58.714Z,2.55
2023-03-04T20:26:03.824Z,2.70
2023-03-04T20:29:07.932Z,2.92
2023-03-04T20:32:12.381Z,2.88
2023-03-04T20:35:16.622Z,3.22
2023-03-04T20:38:20.669Z,2.60
2023-03-04T20:41:26.272Z,2.80
2023-03-04T20:44:30.251Z,2.88
2023-03-04T20:47:34.309Z,2.85
2023-03-04T20:50:38.241Z,3.20
2023-03-04T20:53:43.445Z,2.85
2023-03-04T20:56:48.061Z,2.60
2023-03-04T20:59:52.065Z,2.60
2023-03-04T21:02:57.615Z,2.58
2023-03-04T21:06:06.032Z,3.75
2023-03-04T21:09:12.870Z,3.28
2023-03-04T21:12:16.778Z,2.88
2023-03-04T21:15:20.846Z,2.95
2023-03-04T21:18:26.345Z,2.50
2023-03-04T21:21:31.654Z,3.10
2023-03-04T21:24:37.709Z,2.40
2023-03-04T21:27:43.249Z,2.72
2023-03-04T21:30:47.572Z,2.70
2023-03-04T21:33:54.229Z,3.45
2023-03-04T21:36:58.001Z,3.90
2023-03-04T21:40:02.278Z,3.88
2023-03-04T21:43:09.752Z,4.35
2023-03-04T21:46:15.464Z,4.53
2023-03-04T21:49:19.583Z,4.90
2023-03-04T21:52:23.750Z,4.70
2023-03-04T21:55:27.865Z,4.50
2023-03-04T21:58:35.105Z,4.43
2023-03-04T22:01:39.821Z,4.43
2023-03-04T22:04:44.146Z,4.45
2023-03-04T22:07:48.257Z,4.50
2023-03-04T22:10:52.276Z,4.00
2023-03-04T22:13:58.447Z,3.80
2023-03-04T22:17:02.250Z,3.50
2023-03-04T22:20:06.889Z,3.58
2023-03-04T22:23:12.118Z,3.00
2023-03-04T22:26:19.376Z,3.20
2023-03-04T22:29:23.513Z,2.70
2023-03-04T22:32:27.580Z,2.85
2023-03-04T22:35:31.801Z,2.33
2023-03-04T22:38:36.108Z,2.97
2023-03-04T22:41:41.229Z,2.63
2023-03-04T22:44:45.340Z,2.58
2023-03-04T22:47:51.200Z,2.83
2023-03-04T22:50:55.288Z,3.10
2023-03-04T22:53:59.582Z,2.45
2023-03-04T22:57:03.896Z,2.80
2023-03-04T23:00:21.735Z,2.65
2023-03-04T23:03:25.609Z,2.30
2023-03-04T23:06:30.471Z,2.35
2023-03-04T23:09:34.709Z,2.15
2023-03-04T23:12:39.517Z,2.38
2023-03-04T23:15:43.518Z,2.25
2023-03-04T23:18:49.220Z,2.20
2023-03-04T23:21:53.382Z,2.33
2023-03-04T23:24:57.705Z,2.13
2023-03-04T23:28:02.623Z,2.83
2023-03-04T23:31:06.919Z,2.28
2023-03-04T23:34:12.658Z,2.25
2023-03-04T23:37:16.423Z,2.45
2023-03-04T23:40:20.387Z,2.25
2023-03-04T23:43:27.131Z,2.30
2023-03-04T23:46:31.717Z,2.20
2023-03-04T23:49:36.184Z,2.10
2023-03-04T23:52:40.698Z,2.38
2023-03-04T23:55:44.754Z,2.30
2023-03-04T23:58:49.610Z,2.25
